sensor_id;sensor_type;location;lat;lon;timestamp;pressure;altitude;pressure_sealevel;temperature;humidity
13456;BME280;6800;50.940;6.940;2024-02-14T00:02:38;100869.66;;;17.07;42.95
13456;BME280;6800;50.940;6.940;2024-02-14T00:06:40;100868.38;;;17.34;42.27
13456;BME280;6800;50.940;6.940;2024-02-14T00:10:41;100865.16;;;17.30;41.90
13456;BME280;6800;50.940;6.940;2024-02-14T00:14:46;100866.88;;;17.52;41.64
13456;BME280;6800;50.940;6.940;2024-02-14T00:18:47;100868.72;;;17.40;42.15
13456;BME280;6800;50.940;6.940;2024-02-14T00:22:49;100864.38;;;17.39;42.07
13456;BME280;6800;50.940;6.940;2024-02-14T00:26:50;100863.06;;;17.45;42.81
13456;BME280;6800;50.940;6.940;2024-02-14T00:30:52;100852.94;;;17.18;43.51
13456;BME280;6800;50.940;6.940;2024-02-14T00:34:54;100851.59;;;17.35;43.64
13456;BME280;6800;50.940;6.940;2024-02-14T00:38:55;100847.72;;;17.07;43.82
13456;BME280;6800;50.940;6.940;2024-02-14T00:42:57;100847.09;;;17.14;43.31
13456;BME280;6800;50.940;6.940;2024-02-14T00:46:59;100844.75;;;17.32;43.27
13456;BME280;6800;50.940;6.940;2024-02-14T00:51:01;100853.22;;;17.15;44.08
13456;BME280;6800;50.940;6.940;2024-02-14T00:55:02;100853.97;;;17.69;42.95
13456;BME280;6800;50.940;6.940;2024-02-14T00:59:05;100843.16;;;17.41;43.25
13456;BME280;6800;50.940;6.940;2024-02-14T01:03:07;100839.88;;;17.48;43.13
13456;BME280;6800;50.940;6.940;2024-02-14T01:07:10;100830.22;;;17.38;43.82
13456;BME280;6800;50.940;6.940;2024-02-14T01:11:11;100820.50;;;17.70;43.31
13456;BME280;6800;50.940;6.940;2024-02-14T01:15:13;100824.03;;;17.59;43.47
13456;BME280;6800;50.940;6.940;2024-02-14T01:19:15;100823.00;;;17.40;43.64
13456;BME280;6800;50.940;6.940;2024-02-14T01:23:17;100813.13;;;17.53;43.45
13456;BME280;6800;50.940;6.940;2024-02-14T01:27:19;100812.53;;;17.90;42.71
13456;BME280;6800;50.940;6.940;2024-02-14T01:31:23;100818.75;;;17.59;43.07
13456;BME280;6800;50.940;6.940;2024-02-14T01:35:25;100814.69;;;17.76;43.34
13456;BME280;6800;50.940;6.940;2024-02-14T01:39:27;100807.50;;;17.46;43.86
13456;BME280;6800;50.940;6.940;2024-02-14T01:43:29;100818.88;;;17.58;43.83
13456;BME280;6800;50.940;6.940;2024-02-14T01:47:31;100813.97;;;17.94;43.14
13456;BME280;6800;50.940;6.940;2024-02-14T01:51:35;100826.53;;;17.61;44.20
13456;BME280;6800;50.940;6.940;2024-02-14T01:55:37;100832.25;;;17.45;44.38
13456;BME280;6800;50.940;6.940;2024-02-14T01:59:39;100818.72;;;17.39;44.69
13456;BME280;6800;50.940;6.940;2024-02-14T02:03:40;100807.94;;;17.31;44.90
13456;BME280;6800;50.940;6.940;2024-02-14T02:07:43;100784.28;;;16.77;46.43
13456;BME280;6800;50.940;6.940;2024-02-14T02:11:46;100793.03;;;17.41;45.34
13456;BME280;6800;50.940;6.940;2024-02-14T02:15:49;100806.81;;;17.12;45.86
13456;BME280;6800;50.940;6.940;2024-02-14T02:19:54;100807.81;;;17.64;45.01
13456;BME280;6800;50.940;6.940;2024-02-14T02:23:56;100810.78;;;17.70;45.01
13456;BME280;6800;50.940;6.940;2024-02-14T02:27:57;100808.59;;;17.44;45.47
13456;BME280;6800;50.940;6.940;2024-02-14T02:32:00;100800.94;;;17.41;45.81
13456;BME280;6800;50.940;6.940;2024-02-14T02:36:01;100797.94;;;17.66;45.50
13456;BME280;6800;50.940;6.940;2024-02-14T02:40:06;100808.03;;;17.81;44.78
13456;BME280;6800;50.940;6.940;2024-02-14T02:44:08;100814.09;;;17.93;44.40
13456;BME280;6800;50.940;6.940;2024-02-14T02:48:10;100813.84;;;18.26;44.00
13456;BME280;6800;50.940;6.940;2024-02-14T02:52:12;100830.06;;;18.12;44.69
13456;BME280;6800;50.940;6.940;2024-02-14T02:56:14;100838.38;;;17.87;45.13
13456;BME280;6800;50.940;6.940;2024-02-14T03:00:18;100834.88;;;18.07;44.74
13456;BME280;6800;50.940;6.940;2024-02-14T03:04:22;100843.72;;;18.17;44.94
13456;BME280;6800;50.940;6.940;2024-02-14T03:08:37;100843.41;;;18.11;44.84
13456;BME280;6800;50.940;6.940;2024-02-14T03:12:39;100844.13;;;18.22;44.63
13456;BME280;6800;50.940;6.940;2024-02-14T03:16:40;100842.97;;;17.85;45.81
13456;BME280;6800;50.940;6.940;2024-02-14T03:20:42;100830.91;;;17.92;45.48
13456;BME280;6800;50.940;6.940;2024-02-14T03:24:44;100840.03;;;17.88;45.79
13456;BME280;6800;50.940;6.940;2024-02-14T03:28:48;100827.31;;;17.93;45.68
13456;BME280;6800;50.940;6.940;2024-02-14T03:32:50;100815.03;;;17.92;45.86
13456;BME280;6800;50.940;6.940;2024-02-14T03:36:53;100827.44;;;17.71;46.10
13456;BME280;6800;50.940;6.940;2024-02-14T03:40:55;100826.66;;;17.80;46.21
13456;BME280;6800;50.940;6.940;2024-02-14T03:44:56;100829.00;;;17.94;45.69
13456;BME280;6800;50.940;6.940;2024-02-14T03:49:04;100825.13;;;17.98;45.79
13456;BME280;6800;50.940;6.940;2024-02-14T03:53:06;100817.91;;;18.00;45.59
13456;BME280;6800;50.940;6.940;2024-02-14T03:57:07;100818.09;;;17.87;46.18
13456;BME280;6800;50.940;6.940;2024-02-14T04:01:10;100827.75;;;17.98;46.11
13456;BME280;6800;50.940;6.940;2024-02-14T04:05:11;100828.81;;;18.16;45.55
13456;BME280;6800;50.940;6.940;2024-02-14T04:09:13;100829.13;;;17.72;47.26
13456;BME280;6800;50.940;6.940;2024-02-14T04:13:15;100835.59;;;18.09;45.86
13456;BME280;6800;50.940;6.940;2024-02-14T04:17:16;100836.56;;;18.08;45.41
13456;BME280;6800;50.940;6.940;2024-02-14T04:21:18;100834.31;;;18.04;46.06
13456;BME280;6800;50.940;6.940;2024-02-14T04:25:20;100837.72;;;18.15;45.60
13456;BME280;6800;50.940;6.940;2024-02-14T04:29:21;100840.94;;;18.19;45.49
13456;BME280;6800;50.940;6.940;2024-02-14T04:33:23;100847.63;;;18.23;45.70
13456;BME280;6800;50.940;6.940;2024-02-14T04:37:25;100846.94;;;18.30;45.61
13456;BME280;6800;50.940;6.940;2024-02-14T04:41:27;100841.88;;;17.87;46.40
13456;BME280;6800;50.940;6.940;2024-02-14T04:45:29;100847.56;;;18.43;45.28
13456;BME280;6800;50.940;6.940;2024-02-14T04:49:30;100840.16;;;18.07;46.17
13456;BME280;6800;50.940;6.940;2024-02-14T04:53:32;100843.50;;;17.79;46.99
13456;BME280;6800;50.940;6.940;2024-02-14T04:57:33;100842.91;;;18.47;45.52
13456;BME280;6800;50.940;6.940;2024-02-14T05:01:36;100840.31;;;18.36;45.84
13456;BME280;6800;50.940;6.940;2024-02-14T05:05:38;100846.91;;;18.21;46.47
13456;BME280;6800;50.940;6.940;2024-02-14T05:09:40;100844.06;;;18.33;45.74
13456;BME280;6800;50.940;6.940;2024-02-14T05:13:41;100841.25;;;18.25;45.80
13456;BME280;6800;50.940;6.940;2024-02-14T05:17:43;100847.78;;;18.31;45.76
13456;BME280;6800;50.940;6.940;2024-02-14T05:21:45;100854.19;;;18.28;45.58
13456;BME280;6800;50.940;6.940;2024-02-14T05:25:48;100857.84;;;18.37;45.63
13456;BME280;6800;50.940;6.940;2024-02-14T05:29:51;100860.72;;;18.54;45.21
13456;BME280;6800;50.940;6.940;2024-02-14T05:33:53;100868.22;;;18.49;45.63
13456;BME280;6800;50.940;6.940;2024-02-14T05:37:55;100871.63;;;18.40;45.76
13456;BME280;6800;50.940;6.940;2024-02-14T05:41:56;100871.13;;;18.46;45.30
13456;BME280;6800;50.940;6.940;2024-02-14T05:45:58;100876.69;;;18.23;46.76
13456;BME280;6800;50.940;6.940;2024-02-14T05:50:00;100881.19;;;18.32;46.93
13456;BME280;6800;50.940;6.940;2024-02-14T05:54:01;100885.34;;;18.04;48.15
13456;BME280;6800;50.940;6.940;2024-02-14T05:58:03;100889.22;;;18.30;47.93
13456;BME280;6800;50.940;6.940;2024-02-14T06:02:05;100888.50;;;17.98;49.60
13456;BME280;6800;50.940;6.940;2024-02-14T06:06:09;100886.69;;;18.19;49.10
13456;BME280;6800;50.940;6.940;2024-02-14T06:10:11;100885.59;;;18.01;49.87
13456;BME280;6800;50.940;6.940;2024-02-14T06:14:14;100876.78;;;17.91;50.69
13456;BME280;6800;50.940;6.940;2024-02-14T06:18:15;100880.75;;;17.65;50.99
13456;BME280;6800;50.940;6.940;2024-02-14T06:22:17;100887.41;;;18.01;50.69
13456;BME280;6800;50.940;6.940;2024-02-14T06:26:19;100886.56;;;18.21;49.70
13456;BME280;6800;50.940;6.940;2024-02-14T06:30:21;100894.16;;;18.14;49.79
13456;BME280;6800;50.940;6.940;2024-02-14T06:34:22;100895.00;;;18.15;49.19
13456;BME280;6800;50.940;6.940;2024-02-14T06:38:24;100897.84;;;18.02;49.31
13456;BME280;6800;50.940;6.940;2024-02-14T06:42:26;100900.34;;;18.24;48.86
13456;BME280;6800;50.940;6.940;2024-02-14T06:46:27;100903.44;;;18.50;48.13
13456;BME280;6800;50.940;6.940;2024-02-14T06:50:29;100898.59;;;18.34;48.66
13456;BME280;6800;50.940;6.940;2024-02-14T06:54:31;100896.53;;;18.38;48.18
13456;BME280;6800;50.940;6.940;2024-02-14T06:58:32;100895.38;;;18.31;48.57
13456;BME280;6800;50.940;6.940;2024-02-14T07:02:34;100905.56;;;18.15;48.84
13456;BME280;6800;50.940;6.940;2024-02-14T07:06:35;100904.06;;;18.42;48.06
13456;BME280;6800;50.940;6.940;2024-02-14T07:10:37;100907.16;;;18.47;47.72
13456;BME280;6800;50.940;6.940;2024-02-14T07:14:38;100905.94;;;18.51;47.62
13456;BME280;6800;50.940;6.940;2024-02-14T07:18:40;100924.44;;;18.31;47.70
13456;BME280;6800;50.940;6.940;2024-02-14T07:22:41;100927.84;;;18.22;48.05
13456;BME280;6800;50.940;6.940;2024-02-14T07:26:43;100926.31;;;18.40;47.26
13456;BME280;6800;50.940;6.940;2024-02-14T07:30:46;100934.09;;;18.41;47.34
13456;BME280;6800;50.940;6.940;2024-02-14T07:34:48;100928.59;;;18.24;47.54
13456;BME280;6800;50.940;6.940;2024-02-14T07:38:51;100936.03;;;18.39;47.69
13456;BME280;6800;50.940;6.940;2024-02-14T07:42:53;100939.66;;;18.59;47.19
13456;BME280;6800;50.940;6.940;2024-02-14T07:46:54;100940.75;;;18.56;47.04
13456;BME280;6800;50.940;6.940;2024-02-14T07:50:58;100941.09;;;18.73;46.77
13456;BME280;6800;50.940;6.940;2024-02-14T07:55:00;100945.97;;;18.67;46.68
13456;BME280;6800;50.940;6.940;2024-02-14T07:59:02;100945.75;;;18.90;46.26
13456;BME280;6800;50.940;6.940;2024-02-14T08:03:03;100946.25;;;19.04;46.07
13456;BME280;6800;50.940;6.940;2024-02-14T08:07:09;100942.06;;;19.02;46.01
13456;BME280;6800;50.940;6.940;2024-02-14T08:11:10;100942.47;;;19.07;46.34
13456;BME280;6800;50.940;6.940;2024-02-14T08:15:12;100936.00;;;18.81;46.73
13456;BME280;6800;50.940;6.940;2024-02-14T08:19:13;100919.41;;;19.28;46.09
13456;BME280;6800;50.940;6.940;2024-02-14T08:23:17;100937.59;;;19.71;45.03
13456;BME280;6800;50.940;6.940;2024-02-14T08:27:19;100939.00;;;19.94;44.34
13456;BME280;6800;50.940;6.940;2024-02-14T08:31:20;100945.13;;;19.75;44.94
13456;BME280;6800;50.940;6.940;2024-02-14T08:35:22;100944.16;;;20.14;43.87
13456;BME280;6800;50.940;6.940;2024-02-14T08:39:23;100944.56;;;19.53;45.61
13456;BME280;6800;50.940;6.940;2024-02-14T08:43:25;100951.94;;;19.49;45.28
13456;BME280;6800;50.940;6.940;2024-02-14T08:47:26;100949.31;;;19.97;44.57
13456;BME280;6800;50.940;6.940;2024-02-14T08:51:28;100956.13;;;19.42;45.26
13456;BME280;6800;50.940;6.940;2024-02-14T08:55:30;100956.72;;;19.65;45.26
13456;BME280;6800;50.940;6.940;2024-02-14T08:59:34;100968.84;;;20.05;44.46
13456;BME280;6800;50.940;6.940;2024-02-14T09:03:35;100969.13;;;20.21;44.01
13456;BME280;6800;50.940;6.940;2024-02-14T09:07:36;100972.88;;;20.09;44.32
13456;BME280;6800;50.940;6.940;2024-02-14T09:11:38;100959.09;;;19.96;44.31
13456;BME280;6800;50.940;6.940;2024-02-14T09:15:40;100952.53;;;20.29;43.51
13456;BME280;6800;50.940;6.940;2024-02-14T09:19:41;100952.72;;;20.91;42.54
13456;BME280;6800;50.940;6.940;2024-02-14T09:23:43;100945.03;;;21.25;41.58
13456;BME280;6800;50.940;6.940;2024-02-14T09:27:46;100955.13;;;21.66;40.92
13456;BME280;6800;50.940;6.940;2024-02-14T09:31:50;100950.41;;;22.13;40.09
13456;BME280;6800;50.940;6.940;2024-02-14T09:35:52;100947.59;;;21.80;40.70
13456;BME280;6800;50.940;6.940;2024-02-14T09:39:54;100944.94;;;21.80;40.80
13456;BME280;6800;50.940;6.940;2024-02-14T09:43:56;100950.13;;;21.99;40.58
13456;BME280;6800;50.940;6.940;2024-02-14T09:47:58;100944.69;;;22.77;39.06
13456;BME280;6800;50.940;6.940;2024-02-14T09:52:01;100961.84;;;22.57;39.23
13456;BME280;6800;50.940;6.940;2024-02-14T09:56:09;100960.19;;;22.82;38.59
13456;BME280;6800;50.940;6.940;2024-02-14T10:00:12;100969.81;;;22.75;38.63
13456;BME280;6800;50.940;6.940;2024-02-14T10:04:18;100972.34;;;22.33;39.88
13456;BME280;6800;50.940;6.940;2024-02-14T10:08:21;100978.91;;;22.03;40.47
13456;BME280;6800;50.940;6.940;2024-02-14T10:12:23;100984.53;;;21.83;40.93
13456;BME280;6800;50.940;6.940;2024-02-14T10:16:25;100987.19;;;22.18;40.22
13456;BME280;6800;50.940;6.940;2024-02-14T10:20:27;100998.00;;;21.99;40.51
13456;BME280;6800;50.940;6.940;2024-02-14T10:24:31;101002.84;;;21.86;40.50
13456;BME280;6800;50.940;6.940;2024-02-14T10:28:32;101002.63;;;21.69;41.10
13456;BME280;6800;50.940;6.940;2024-02-14T10:32:43;101003.00;;;21.84;40.67
13456;BME280;6800;50.940;6.940;2024-02-14T10:36:51;101004.50;;;21.87;40.77
13456;BME280;6800;50.940;6.940;2024-02-14T10:40:54;100998.56;;;22.71;39.56
13456;BME280;6800;50.940;6.940;2024-02-14T10:44:55;100986.03;;;23.97;37.09
13456;BME280;6800;50.940;6.940;2024-02-14T10:49:04;100994.94;;;22.80;38.83
13456;BME280;6800;50.940;6.940;2024-02-14T10:53:12;100986.94;;;23.48;38.14
13456;BME280;6800;50.940;6.940;2024-02-14T10:57:15;100990.03;;;24.65;35.79
13456;BME280;6800;50.940;6.940;2024-02-14T11:01:18;100993.28;;;23.55;37.33
13456;BME280;6800;50.940;6.940;2024-02-14T11:05:21;100999.59;;;23.46;37.45
13456;BME280;6800;50.940;6.940;2024-02-14T11:09:37;100995.78;;;22.81;40.10
13456;BME280;6800;50.940;6.940;2024-02-14T11:13:42;100995.56;;;23.34;39.52
13456;BME280;6800;50.940;6.940;2024-02-14T11:17:44;101001.50;;;22.86;41.43
13456;BME280;6800;50.940;6.940;2024-02-14T11:21:47;100988.94;;;22.78;42.48
13456;BME280;6800;50.940;6.940;2024-02-14T11:25:50;100992.22;;;22.98;42.56
13456;BME280;6800;50.940;6.940;2024-02-14T11:29:53;100998.25;;;22.57;42.22
13456;BME280;6800;50.940;6.940;2024-02-14T11:33:54;100998.72;;;22.09;41.84
13456;BME280;6800;50.940;6.940;2024-02-14T11:37:58;100992.91;;;21.88;42.61
13456;BME280;6800;50.940;6.940;2024-02-14T11:42:01;100988.47;;;22.14;41.71
13456;BME280;6800;50.940;6.940;2024-02-14T11:46:04;100990.97;;;21.98;41.50
13456;BME280;6800;50.940;6.940;2024-02-14T11:50:06;100987.06;;;22.45;40.78
13456;BME280;6800;50.940;6.940;2024-02-14T11:54:08;100983.75;;;22.08;41.40
13456;BME280;6800;50.940;6.940;2024-02-14T11:58:11;100984.13;;;22.13;41.38
13456;BME280;6800;50.940;6.940;2024-02-14T12:02:12;100984.34;;;22.37;40.93
13456;BME280;6800;50.940;6.940;2024-02-14T12:06:15;100972.06;;;22.44;40.78
13456;BME280;6800;50.940;6.940;2024-02-14T12:10:17;100969.38;;;21.65;42.79
13456;BME280;6800;50.940;6.940;2024-02-14T12:14:18;100981.13;;;21.90;42.40
13456;BME280;6800;50.940;6.940;2024-02-14T12:18:25;100978.59;;;21.89;42.62
13456;BME280;6800;50.940;6.940;2024-02-14T12:22:27;100979.28;;;21.28;44.11
13456;BME280;6800;50.940;6.940;2024-02-14T12:26:30;100980.31;;;21.62;44.65
13456;BME280;6800;50.940;6.940;2024-02-14T12:30:46;100978.81;;;21.77;43.71
13456;BME280;6800;50.940;6.940;2024-02-14T12:34:48;100968.88;;;21.97;43.06
13456;BME280;6800;50.940;6.940;2024-02-14T12:38:49;100964.69;;;21.77;42.93
13456;BME280;6800;50.940;6.940;2024-02-14T12:42:51;100964.38;;;21.62;42.67
13456;BME280;6800;50.940;6.940;2024-02-14T12:46:52;100963.78;;;22.04;41.92
13456;BME280;6800;50.940;6.940;2024-02-14T12:50:54;100961.91;;;21.96;41.94
13456;BME280;6800;50.940;6.940;2024-02-14T12:54:56;100965.47;;;21.87;42.36
13456;BME280;6800;50.940;6.940;2024-02-14T12:59:00;100958.66;;;21.57;42.82
13456;BME280;6800;50.940;6.940;2024-02-14T13:03:01;100955.97;;;21.85;42.51
13456;BME280;6800;50.940;6.940;2024-02-14T13:07:05;100950.06;;;22.34;41.44
13456;BME280;6800;50.940;6.940;2024-02-14T13:11:08;100949.19;;;22.08;42.25
13456;BME280;6800;50.940;6.940;2024-02-14T13:15:12;100950.56;;;22.37;41.75
13456;BME280;6800;50.940;6.940;2024-02-14T13:19:14;100948.25;;;21.46;44.49
13456;BME280;6800;50.940;6.940;2024-02-14T13:23:20;100947.59;;;22.15;43.66
13456;BME280;6800;50.940;6.940;2024-02-14T13:27:21;100942.22;;;21.54;44.09
13456;BME280;6800;50.940;6.940;2024-02-14T13:31:24;100940.91;;;21.58;44.82
13456;BME280;6800;50.940;6.940;2024-02-14T13:35:26;100946.34;;;21.84;43.43
13456;BME280;6800;50.940;6.940;2024-02-14T13:39:28;100954.78;;;21.69;44.15
13456;BME280;6800;50.940;6.940;2024-02-14T13:43:30;100959.97;;;21.53;44.67
13456;BME280;6800;50.940;6.940;2024-02-14T13:47:31;100961.19;;;21.14;46.18
13456;BME280;6800;50.940;6.940;2024-02-14T13:51:33;100954.59;;;21.63;45.90
13456;BME280;6800;50.940;6.940;2024-02-14T13:55:35;100960.41;;;21.31;47.65
13456;BME280;6800;50.940;6.940;2024-02-14T13:59:36;100973.25;;;20.99;48.31
13456;BME280;6800;50.940;6.940;2024-02-14T14:03:38;100961.19;;;21.14;48.61
13456;BME280;6800;50.940;6.940;2024-02-14T14:07:40;100949.97;;;20.83;49.66
13456;BME280;6800;50.940;6.940;2024-02-14T14:11:58;100957.44;;;20.70;50.51
13456;BME280;6800;50.940;6.940;2024-02-14T14:16:00;100962.34;;;20.65;51.03
13456;BME280;6800;50.940;6.940;2024-02-14T14:20:02;100960.72;;;20.55;51.74
13456;BME280;6800;50.940;6.940;2024-02-14T14:24:05;100966.81;;;20.65;52.11
13456;BME280;6800;50.940;6.940;2024-02-14T14:28:09;100975.13;;;20.23;54.15
13456;BME280;6800;50.940;6.940;2024-02-14T14:32:11;100969.13;;;20.02;54.67
13456;BME280;6800;50.940;6.940;2024-02-14T14:36:12;100973.31;;;19.95;55.87
13456;BME280;6800;50.940;6.940;2024-02-14T14:40:14;100970.78;;;20.13;55.84
13456;BME280;6800;50.940;6.940;2024-02-14T14:44:16;100960.47;;;20.00;56.79
13456;BME280;6800;50.940;6.940;2024-02-14T14:48:19;100967.59;;;19.71;57.11
13456;BME280;6800;50.940;6.940;2024-02-14T14:52:21;100967.75;;;19.89;57.13
13456;BME280;6800;50.940;6.940;2024-02-14T14:56:22;100964.25;;;19.69;58.00
13456;BME280;6800;50.940;6.940;2024-02-14T15:00:26;100973.59;;;19.92;57.68
13456;BME280;6800;50.940;6.940;2024-02-14T15:04:28;100974.00;;;19.59;58.21
13456;BME280;6800;50.940;6.940;2024-02-14T15:08:30;100977.63;;;19.68;58.24
13456;BME280;6800;50.940;6.940;2024-02-14T15:12:32;100974.66;;;19.42;58.93
13456;BME280;6800;50.940;6.940;2024-02-14T15:16:36;100974.38;;;19.35;59.15
13456;BME280;6800;50.940;6.940;2024-02-14T15:20:37;100972.13;;;19.40;59.07
13456;BME280;6800;50.940;6.940;2024-02-14T15:24:39;100972.34;;;19.18;59.65
13456;BME280;6800;50.940;6.940;2024-02-14T15:28:43;100969.84;;;19.17;59.87
13456;BME280;6800;50.940;6.940;2024-02-14T15:32:46;100959.56;;;19.33;59.49
13456;BME280;6800;50.940;6.940;2024-02-14T15:37:16;100960.88;;;19.48;58.74
13456;BME280;6800;50.940;6.940;2024-02-14T15:41:19;100956.94;;;18.93;60.11
13456;BME280;6800;50.940;6.940;2024-02-14T15:45:21;100952.09;;;19.38;59.23
13456;BME280;6800;50.940;6.940;2024-02-14T15:49:23;100949.84;;;19.43;58.97
13456;BME280;6800;50.940;6.940;2024-02-14T15:53:24;100952.00;;;19.19;59.41
13456;BME280;6800;50.940;6.940;2024-02-14T15:57:28;100959.25;;;19.17;59.68
13456;BME280;6800;50.940;6.940;2024-02-14T16:01:29;100956.59;;;19.17;59.64
13456;BME280;6800;50.940;6.940;2024-02-14T16:05:31;100963.81;;;19.64;59.00
13456;BME280;6800;50.940;6.940;2024-02-14T16:09:33;100959.91;;;19.59;58.73
13456;BME280;6800;50.940;6.940;2024-02-14T16:13:35;100961.44;;;19.61;57.94
13456;BME280;6800;50.940;6.940;2024-02-14T16:17:37;100959.00;;;19.29;59.66
13456;BME280;6800;50.940;6.940;2024-02-14T16:21:40;100958.19;;;19.38;58.88
13456;BME280;6800;50.940;6.940;2024-02-14T16:25:43;100958.22;;;19.58;58.58
13456;BME280;6800;50.940;6.940;2024-02-14T16:29:46;100966.56;;;19.43;58.81
13456;BME280;6800;50.940;6.940;2024-02-14T16:33:48;100958.50;;;19.64;58.53
13456;BME280;6800;50.940;6.940;2024-02-14T16:37:50;100958.38;;;19.75;58.04
13456;BME280;6800;50.940;6.940;2024-02-14T16:41:51;100956.16;;;19.80;58.02
13456;BME280;6800;50.940;6.940;2024-02-14T16:45:53;100953.50;;;19.61;58.21
13456;BME280;6800;50.940;6.940;2024-02-14T16:49:54;100966.03;;;19.69;58.31
13456;BME280;6800;50.940;6.940;2024-02-14T16:53:59;100966.63;;;19.72;58.42
13456;BME280;6800;50.940;6.940;2024-02-14T16:58:01;100969.13;;;19.74;58.01
13456;BME280;6800;50.940;6.940;2024-02-14T17:02:04;100967.59;;;19.71;58.25
13456;BME280;6800;50.940;6.940;2024-02-14T17:06:07;100974.84;;;19.69;58.70
13456;BME280;6800;50.940;6.940;2024-02-14T17:10:09;100970.25;;;19.90;58.22
13456;BME280;6800;50.940;6.940;2024-02-14T17:14:11;100974.56;;;19.91;58.22
13456;BME280;6800;50.940;6.940;2024-02-14T17:18:13;100971.50;;;19.96;57.95
13456;BME280;6800;50.940;6.940;2024-02-14T17:22:15;100980.00;;;19.99;57.75
13456;BME280;6800;50.940;6.940;2024-02-14T17:26:27;100989.47;;;19.73;58.51
13456;BME280;6800;50.940;6.940;2024-02-14T17:30:29;100990.31;;;20.02;58.07
13456;BME280;6800;50.940;6.940;2024-02-14T17:34:30;100993.97;;;20.01;57.95
13456;BME280;6800;50.940;6.940;2024-02-14T17:38:35;100994.63;;;19.94;57.97
13456;BME280;6800;50.940;6.940;2024-02-14T17:42:38;100981.66;;;20.00;58.19
13456;BME280;6800;50.940;6.940;2024-02-14T17:46:40;100989.34;;;19.94;58.24
13456;BME280;6800;50.940;6.940;2024-02-14T17:50:41;100993.69;;;20.14;57.72
13456;BME280;6800;50.940;6.940;2024-02-14T17:54:44;100996.63;;;20.01;58.00
13456;BME280;6800;50.940;6.940;2024-02-14T17:58:47;100999.53;;;20.08;57.88
13456;BME280;6800;50.940;6.940;2024-02-14T18:02:48;100998.16;;;20.04;57.51
13456;BME280;6800;50.940;6.940;2024-02-14T18:06:51;101006.53;;;19.99;58.14
13456;BME280;6800;50.940;6.940;2024-02-14T18:10:52;101016.53;;;19.96;58.16
13456;BME280;6800;50.940;6.940;2024-02-14T18:14:54;101016.53;;;20.15;57.67
13456;BME280;6800;50.940;6.940;2024-02-14T18:18:58;101021.03;;;20.14;57.62
13456;BME280;6800;50.940;6.940;2024-02-14T18:23:00;101019.06;;;20.07;58.17
13456;BME280;6800;50.940;6.940;2024-02-14T18:27:03;101022.84;;;20.23;57.40
13456;BME280;6800;50.940;6.940;2024-02-14T18:35:42;101034.44;;;20.32;57.04
13456;BME280;6800;50.940;6.940;2024-02-14T18:39:43;101033.75;;;20.20;58.01
13456;BME280;6800;50.940;6.940;2024-02-14T18:43:45;101034.84;;;20.28;57.76
13456;BME280;6800;50.940;6.940;2024-02-14T18:47:49;101031.78;;;20.23;57.71
13456;BME280;6800;50.940;6.940;2024-02-14T18:51:50;101034.69;;;20.00;58.11
13456;BME280;6800;50.940;6.940;2024-02-14T18:55:52;101039.28;;;20.17;58.15
13456;BME280;6800;50.940;6.940;2024-02-14T18:59:54;101035.25;;;20.04;58.41
13456;BME280;6800;50.940;6.940;2024-02-14T19:03:56;101030.94;;;19.93;58.38
13456;BME280;6800;50.940;6.940;2024-02-14T19:08:06;101032.31;;;20.07;58.03
13456;BME280;6800;50.940;6.940;2024-02-14T19:12:10;101030.91;;;20.03;58.26
13456;BME280;6800;50.940;6.940;2024-02-14T19:16:14;101033.56;;;20.03;58.44
13456;BME280;6800;50.940;6.940;2024-02-14T19:20:28;101037.75;;;19.86;58.52
13456;BME280;6800;50.940;6.940;2024-02-14T19:24:32;101037.91;;;19.85;58.87
13456;BME280;6800;50.940;6.940;2024-02-14T19:28:34;101038.44;;;19.98;58.72
13456;BME280;6800;50.940;6.940;2024-02-14T19:32:35;101042.22;;;20.05;57.97
13456;BME280;6800;50.940;6.940;2024-02-14T19:36:40;101037.63;;;20.16;57.82
13456;BME280;6800;50.940;6.940;2024-02-14T19:40:42;101039.41;;;20.06;58.30
13456;BME280;6800;50.940;6.940;2024-02-14T19:44:47;101041.66;;;20.01;58.34
13456;BME280;6800;50.940;6.940;2024-02-14T19:49:00;101046.13;;;20.01;58.42
13456;BME280;6800;50.940;6.940;2024-02-14T19:53:08;101043.75;;;19.98;59.00
13456;BME280;6800;50.940;6.940;2024-02-14T19:57:09;101050.72;;;19.99;58.37
13456;BME280;6800;50.940;6.940;2024-02-14T20:01:11;101060.34;;;20.00;58.37
13456;BME280;6800;50.940;6.940;2024-02-14T20:05:13;101058.41;;;20.11;58.05
13456;BME280;6800;50.940;6.940;2024-02-14T20:09:15;101057.13;;;19.96;58.44
13456;BME280;6800;50.940;6.940;2024-02-14T20:13:17;101063.16;;;20.17;57.97
13456;BME280;6800;50.940;6.940;2024-02-14T20:17:19;101061.06;;;20.11;58.15
13456;BME280;6800;50.940;6.940;2024-02-14T20:21:20;101056.00;;;19.89;58.21
13456;BME280;6800;50.940;6.940;2024-02-14T20:25:26;101059.53;;;19.99;58.56
13456;BME280;6800;50.940;6.940;2024-02-14T20:29:28;101053.13;;;20.02;58.45
13456;BME280;6800;50.940;6.940;2024-02-14T20:33:30;101050.28;;;19.84;58.20
13456;BME280;6800;50.940;6.940;2024-02-14T20:37:32;101044.03;;;19.95;58.51
13456;BME280;6800;50.940;6.940;2024-02-14T20:41:34;101048.59;;;19.83;58.46
13456;BME280;6800;50.940;6.940;2024-02-14T20:45:37;101045.00;;;19.84;58.06
13456;BME280;6800;50.940;6.940;2024-02-14T20:49:38;101042.50;;;20.02;57.94
13456;BME280;6800;50.940;6.940;2024-02-14T20:53:40;101049.44;;;19.84;57.98
13456;BME280;6800;50.940;6.940;2024-02-14T20:57:42;101050.31;;;20.03;57.59
13456;BME280;6800;50.940;6.940;2024-02-14T21:01:43;101045.16;;;19.83;58.28
13456;BME280;6800;50.940;6.940;2024-02-14T21:05:45;101055.03;;;19.90;57.83
13456;BME280;6800;50.940;6.940;2024-02-14T21:09:48;101051.16;;;20.04;57.36
13456;BME280;6800;50.940;6.940;2024-02-14T21:13:50;101060.19;;;19.82;57.88
13456;BME280;6800;50.940;6.940;2024-02-14T21:17:51;101058.25;;;19.94;57.57
13456;BME280;6800;50.940;6.940;2024-02-14T21:21:54;101056.00;;;19.80;57.96
13456;BME280;6800;50.940;6.940;2024-02-14T21:25:56;101061.75;;;19.85;57.62
13456;BME280;6800;50.940;6.940;2024-02-14T21:29:57;101070.69;;;19.93;57.15